createdAt,value
2023-04-05T00:01:50.342Z,5.70
2023-04-05T00:04:21.484Z,5.60
2023-04-05T00:06:53.135Z,5.50
2023-04-05T00:09:21.060Z,5.40
2023-04-05T00:11:48.345Z,5.30
2023-04-05T00:14:15.702Z,5.30
2023-04-05T00:16:42.903Z,5.30
2023-04-05T00:19:14.116Z,5.30
2023-04-05T00:21:41.230Z,5.10
2023-04-05T00:24:09.728Z,5.10
2023-04-05T00:26:36.666Z,5.10
2023-04-05T00:29:03.714Z,4.90
2023-04-05T00:31:31.616Z,4.90
2023-04-05T00:33:59.071Z,4.90
2023-04-05T00:36:27.151Z,4.80
2023-04-05T00:38:55.260Z,4.70
2023-04-05T00:41:22.269Z,4.70
2023-04-05T00:43:49.792Z,4.70
2023-04-05T00:46:17.299Z,4.70
2023-04-05T00:48:44.640Z,4.70
2023-04-05T00:51:12.084Z,4.70
2023-04-05T00:53:40.206Z,4.70
2023-04-05T00:56:07.996Z,4.60
2023-04-05T00:58:35.009Z,4.60
2023-04-05T01:01:14.119Z,4.60
2023-04-05T01:03:49.776Z,4.60
2023-04-05T01:06:21.195Z,4.50
2023-04-05T01:08:48.152Z,4.50
2023-04-05T01:11:15.944Z,4.50
2023-04-05T01:13:45.481Z,4.40
2023-04-05T01:16:12.512Z,4.30
2023-04-05T01:18:39.581Z,4.30
2023-04-05T01:21:10.828Z,4.30
2023-04-05T01:23:58.916Z,4.20
2023-04-05T01:26:37.835Z,4.20
2023-04-05T01:29:05.191Z,4.10
2023-04-05T01:31:59.020Z,4.10
2023-04-05T01:34:30.017Z,4.10
2023-04-05T01:36:58.277Z,4.00
2023-04-05T01:39:26.098Z,4.00
2023-04-05T01:50:17.640Z,3.90
2023-04-05T01:52:44.596Z,3.90
2023-04-05T01:55:11.617Z,3.90
2023-04-05T01:57:39.301Z,3.80
2023-04-05T02:00:06.844Z,3.80
2023-04-05T02:02:34.052Z,3.80
2023-04-05T02:05:01.548Z,3.70
2023-04-05T02:07:28.583Z,3.70
2023-04-05T02:09:55.567Z,3.70
2023-04-05T02:12:23.020Z,3.60
2023-04-05T02:14:51.862Z,3.60
2023-04-05T02:17:19.201Z,3.60
2023-04-05T02:19:47.243Z,3.50
2023-04-05T02:22:14.541Z,3.50
2023-04-05T02:24:42.073Z,3.50
2023-04-05T02:27:09.096Z,3.50
2023-04-05T02:29:36.148Z,3.50
2023-04-05T02:32:03.275Z,3.50
2023-04-05T02:34:31.424Z,3.40
2023-04-05T02:36:59.242Z,3.40
2023-04-05T02:39:26.794Z,3.30
2023-04-05T02:41:53.799Z,3.30
2023-04-05T02:44:20.838Z,3.20
2023-04-05T02:46:47.797Z,3.20
2023-04-05T02:49:14.950Z,3.20
2023-04-05T02:51:41.912Z,3.20
2023-04-05T02:54:09.163Z,3.20
2023-04-05T02:56:36.948Z,3.10
2023-04-05T02:59:04.283Z,3.10
2023-04-05T03:04:41.675Z,3.10
2023-04-05T03:07:10.743Z,2.90
2023-04-05T03:09:38.886Z,2.80
2023-04-05T03:12:06.087Z,2.70
2023-04-05T03:14:34.651Z,2.70
2023-04-05T03:17:01.668Z,2.60
2023-04-05T03:19:28.742Z,2.60
2023-04-05T03:21:55.995Z,2.50
2023-04-05T03:24:23.347Z,2.50
2023-04-05T03:26:50.500Z,2.50
2023-04-05T03:29:20.976Z,2.40
2023-04-05T03:31:50.427Z,2.40
2023-04-05T03:34:17.616Z,2.40
2023-04-05T03:36:44.675Z,2.40
2023-04-05T03:39:12.693Z,2.30
2023-04-05T03:41:40.670Z,2.20
2023-04-05T03:44:08.337Z,2.20
2023-04-05T03:46:38.213Z,2.10
2023-04-05T03:49:06.525Z,2.10
2023-04-05T03:51:33.791Z,2.10
2023-04-05T03:54:00.967Z,2.10
2023-04-05T03:56:28.095Z,2.10
2023-04-05T03:58:55.136Z,2.10
2023-04-05T04:01:22.569Z,2.10
2023-04-05T04:03:49.547Z,2.10
2023-04-05T04:06:19.268Z,2.10
2023-04-05T04:08:46.829Z,2.10
2023-04-05T04:11:13.820Z,2.10
2023-04-05T04:13:41.635Z,2.00
2023-04-05T04:16:08.674Z,2.00
2023-04-05T04:18:36.337Z,2.00
2023-04-05T04:21:07.234Z,1.90
2023-04-05T04:23:38.968Z,1.90
2023-04-05T04:26:06.420Z,1.90
2023-04-05T04:28:35.047Z,1.90
2023-04-05T04:31:09.456Z,1.90
2023-04-05T04:33:36.498Z,1.90
2023-04-05T04:36:07.268Z,1.90
2023-04-05T04:38:35.096Z,1.80
2023-04-05T04:41:06.411Z,1.70
2023-04-05T04:43:38.250Z,1.60
2023-04-05T04:46:11.119Z,1.60
2023-04-05T04:48:42.964Z,1.50
2023-04-05T04:51:09.937Z,1.50
2023-04-05T04:53:37.089Z,1.50
2023-04-05T04:56:07.999Z,1.60
2023-04-05T04:58:35.134Z,1.60
2023-04-05T05:01:09.300Z,1.60
2023-04-05T05:03:41.725Z,1.60
2023-04-05T05:06:08.917Z,1.50
2023-04-05T05:08:37.259Z,1.50
2023-04-05T05:11:07.024Z,1.50
2023-04-05T05:13:34.302Z,1.50
2023-04-05T05:16:02.151Z,1.50
2023-04-05T05:18:29.129Z,1.60
2023-04-05T05:20:56.313Z,1.50
2023-04-05T05:23:23.612Z,1.60
2023-04-05T05:25:50.968Z,2.00
2023-04-05T05:28:18.120Z,2.40
2023-04-05T05:30:47.210Z,2.40
2023-04-05T05:33:14.236Z,2.30
2023-04-05T05:35:41.281Z,2.20
2023-04-05T05:38:10.712Z,2.10
2023-04-05T05:40:39.902Z,2.00
2023-04-05T05:43:07.178Z,2.00
2023-04-05T05:45:34.841Z,1.90
2023-04-05T05:48:01.930Z,2.00
2023-04-05T05:50:33.069Z,2.00
2023-04-05T05:53:01.577Z,2.00
2023-04-05T05:55:28.914Z,2.10
2023-04-05T05:57:56.308Z,2.10
2023-04-05T06:00:23.346Z,2.20
2023-04-05T06:02:50.818Z,2.20
2023-04-05T06:05:18.257Z,2.30
2023-04-05T06:07:45.328Z,2.40
2023-04-05T06:10:16.720Z,2.50
2023-04-05T06:12:43.850Z,2.60
2023-04-05T06:17:56.949Z,2.80
2023-04-05T06:20:24.001Z,2.90
2023-04-05T06:22:51.061Z,3.00
2023-04-05T06:25:18.487Z,3.00
2023-04-05T06:27:45.639Z,3.10
2023-04-05T06:30:13.405Z,3.20
2023-04-05T06:32:40.617Z,3.30
2023-04-05T06:35:08.127Z,3.40
2023-04-05T06:37:35.153Z,3.40
2023-04-05T06:40:02.211Z,3.60
2023-04-05T06:42:29.299Z,3.70
2023-04-05T06:44:56.607Z,3.80
2023-04-05T06:47:23.591Z,3.90
2023-04-05T06:49:50.690Z,3.90
2023-04-05T06:52:17.982Z,4.00
2023-04-05T06:54:45.023Z,4.10
2023-04-05T06:57:11.999Z,4.20
2023-04-05T06:59:38.982Z,4.30
2023-04-05T07:02:06.164Z,4.30
2023-04-05T07:04:37.196Z,4.40
2023-04-05T07:07:04.346Z,4.60
2023-04-05T07:09:33.046Z,4.70
2023-04-05T07:12:00.291Z,4.80
2023-04-05T07:14:27.517Z,5.00
2023-04-05T07:16:54.720Z,5.10
2023-04-05T07:19:21.831Z,5.20
2023-04-05T07:21:49.261Z,5.30
2023-04-05T07:24:16.573Z,5.40
2023-04-05T07:26:43.613Z,5.50
2023-04-05T07:29:11.046Z,5.60
2023-04-05T07:31:42.142Z,5.60
2023-04-05T07:34:09.432Z,5.70
2023-04-05T07:36:37.381Z,5.80
2023-04-05T07:39:05.608Z,5.90
2023-04-05T07:41:32.642Z,6.00
2023-04-05T07:43:59.649Z,6.10
2023-04-05T07:46:27.574Z,6.20
2023-04-05T07:48:54.885Z,6.30
2023-04-05T07:51:21.947Z,6.40
2023-04-05T07:53:49.733Z,6.50
2023-04-05T07:56:17.170Z,6.60
2023-04-05T07:58:44.626Z,6.70
2023-04-05T08:01:11.950Z,6.80
2023-04-05T08:03:40.335Z,7.00
2023-04-05T08:06:14.236Z,7.10
2023-04-05T08:08:41.553Z,7.20
2023-04-05T08:11:08.843Z,7.30
2023-04-05T08:13:37.042Z,7.40
2023-04-05T08:16:04.171Z,7.60
2023-04-05T08:18:31.262Z,7.70
2023-04-05T08:20:58.390Z,7.80
2023-04-05T08:23:25.636Z,7.90
2023-04-05T08:25:52.909Z,8.10
2023-04-05T08:28:19.850Z,8.10
2023-04-05T08:30:46.932Z,8.30
2023-04-05T08:33:14.609Z,8.40
2023-04-05T08:35:43.334Z,8.50
2023-04-05T08:38:12.543Z,8.50
2023-04-05T08:40:43.454Z,8.60
2023-04-05T08:43:15.375Z,8.70
2023-04-05T08:45:48.529Z,8.90
2023-04-05T08:48:19.252Z,9.10
2023-04-05T08:50:52.675Z,9.20
2023-04-05T08:53:20.286Z,9.30
2023-04-05T08:55:53.458Z,9.40
2023-04-05T08:58:22.511Z,9.60
2023-04-05T09:00:50.754Z,9.70
2023-04-05T09:03:32.060Z,9.80
2023-04-05T09:05:59.488Z,9.90
2023-04-05T09:08:26.516Z,10.00
2023-04-05T09:10:53.506Z,10.10
2023-04-05T09:13:20.616Z,10.10
2023-04-05T09:15:47.858Z,10.20
2023-04-05T09:18:25.581Z,10.30
2023-04-05T09:21:05.093Z,10.50
2023-04-05T09:23:32.519Z,10.60
2023-04-05T09:25:59.457Z,10.60
2023-04-05T09:28:42.795Z,10.60
2023-04-05T09:31:10.221Z,10.60
2023-04-05T09:33:37.294Z,10.80
2023-04-05T09:36:04.413Z,10.90
2023-04-05T09:38:44.538Z,11.00
2023-04-05T09:41:11.779Z,11.00
2023-04-05T09:43:39.839Z,11.20
2023-04-05T09:46:07.976Z,11.20
2023-04-05T09:48:47.906Z,11.30
2023-04-05T09:51:18.316Z,11.50
2023-04-05T09:54:02.235Z,11.50
2023-04-05T09:56:30.599Z,11.50
2023-04-05T09:59:04.911Z,11.60
2023-04-05T10:01:32.222Z,11.70
2023-04-05T10:04:00.456Z,11.70
2023-04-05T10:06:40.640Z,11.80
2023-04-05T10:09:08.460Z,11.90
2023-04-05T10:11:36.554Z,11.90
2023-04-05T10:14:05.653Z,12.00
2023-04-05T10:16:53.073Z,12.10
2023-04-05T10:19:26.645Z,12.20
2023-04-05T10:21:54.849Z,12.40
2023-04-05T10:24:23.079Z,12.40
2023-04-05T10:26:59.450Z,12.50
2023-04-05T10:29:30.972Z,12.60
2023-04-05T10:32:08.842Z,12.70
2023-04-05T10:34:58.013Z,12.70
2023-04-05T10:37:37.582Z,12.70
2023-04-05T10:40:11.994Z,12.70
2023-04-05T10:42:46.928Z,12.70
2023-04-05T10:45:15.880Z,12.90
2023-04-05T10:47:54.892Z,13.00
2023-04-05T10:50:25.840Z,13.00
2023-04-05T10:52:53.904Z,13.20
2023-04-05T10:55:22.070Z,13.30
2023-04-05T10:57:49.983Z,13.40
2023-04-05T11:00:17.986Z,13.40
2023-04-05T11:02:45.126Z,13.50
2023-04-05T11:05:32.257Z,13.50
2023-04-05T11:08:07.157Z,13.50
2023-04-05T11:10:35.265Z,13.40
2023-04-05T11:13:02.722Z,13.50
2023-04-05T11:15:33.545Z,13.50
2023-04-05T11:18:04.893Z,13.30
2023-04-05T11:20:45.602Z,13.20
2023-04-05T11:23:13.997Z,13.30
2023-04-05T11:25:41.752Z,13.50
2023-04-05T11:28:12.194Z,13.80
2023-04-05T11:30:53.276Z,14.00
2023-04-05T11:33:57.602Z,14.10
2023-04-05T11:36:32.579Z,14.20
2023-04-05T11:39:18.429Z,14.20
2023-04-05T11:42:04.008Z,14.00
2023-04-05T11:44:40.137Z,14.00
2023-04-05T11:47:07.140Z,14.20
2023-04-05T11:49:34.658Z,14.40
2023-04-05T11:52:10.254Z,14.60
2023-04-05T11:54:37.223Z,14.80
2023-04-05T11:57:04.412Z,15.00
2023-04-05T11:59:33.071Z,15.00
2023-04-05T12:02:04.416Z,15.00
2023-04-05T12:04:31.504Z,15.10
2023-04-05T12:07:17.188Z,15.30
2023-04-05T12:10:19.780Z,15.40
2023-04-05T12:12:47.953Z,15.50
2023-04-05T12:15:17.977Z,15.60
2023-04-05T12:17:46.180Z,15.50
2023-04-05T12:20:14.570Z,15.50
2023-04-05T12:22:42.491Z,15.70
2023-04-05T12:25:09.646Z,15.90
2023-04-05T12:27:36.751Z,15.90
2023-04-05T12:30:17.572Z,16.10
2023-04-05T12:32:55.070Z,16.20
2023-04-05T12:35:24.732Z,16.50
2023-04-05T12:37:52.340Z,16.90
2023-04-05T12:40:23.174Z,17.40
2023-04-05T12:42:50.708Z,17.60
2023-04-05T12:45:18.876Z,17.70
2023-04-05T12:47:50.646Z,17.90
2023-04-05T12:50:19.064Z,18.00
2023-04-05T12:52:56.012Z,17.90
2023-04-05T12:55:23.463Z,18.10
2023-04-05T12:57:50.910Z,18.20
2023-04-05T13:00:18.222Z,18.30
2023-04-05T13:02:48.944Z,18.40
2023-04-05T13:05:16.063Z,18.50
2023-04-05T13:07:43.100Z,18.60
2023-04-05T13:10:10.505Z,18.60
2023-04-05T13:12:37.483Z,18.70
2023-04-05T13:15:04.644Z,18.80
2023-04-05T13:17:31.714Z,19.00
2023-04-05T13:19:58.744Z,19.10
2023-04-05T13:22:26.446Z,19.20
2023-04-05T13:24:54.216Z,19.20
2023-04-05T13:27:21.991Z,19.20
2023-04-05T13:29:48.886Z,19.30
2023-04-05T13:32:15.921Z,19.40
2023-04-05T13:34:42.809Z,19.50
2023-04-05T13:37:09.853Z,19.40
2023-04-05T13:39:36.823Z,19.40
2023-04-05T13:42:03.938Z,19.40
2023-04-05T13:44:31.720Z,19.40
2023-04-05T13:46:58.769Z,19.40
2023-04-05T13:49:25.852Z,19.50
2023-04-05T13:51:52.855Z,19.70
2023-04-05T13:54:19.853Z,19.80
2023-04-05T13:56:46.792Z,19.90
2023-04-05T13:59:17.453Z,20.00
2023-04-05T14:01:44.697Z,20.10
2023-04-05T14:04:11.823Z,20.10
2023-04-05T14:06:39.097Z,20.20
2023-04-05T14:09:06.374Z,20.20
2023-04-05T14:11:33.425Z,20.20
2023-04-05T14:14:00.735Z,20.00
2023-04-05T14:16:28.126Z,20.20
2023-04-05T14:18:55.488Z,20.10
2023-04-05T14:21:22.836Z,19.80
2023-04-05T14:23:53.310Z,19.50
2023-04-05T14:26:20.732Z,19.60
2023-04-05T14:28:48.082Z,19.70
2023-04-05T14:31:15.253Z,19.90
2023-04-05T14:33:42.349Z,19.90
2023-04-05T14:36:09.598Z,19.90
2023-04-05T14:38:36.893Z,19.90
2023-04-05T14:41:06.248Z,19.80
2023-04-05T14:43:33.313Z,20.00
2023-04-05T14:46:00.660Z,20.20
2023-04-05T14:48:30.482Z,20.40
2023-04-05T14:50:57.845Z,20.30
2023-04-05T14:53:25.277Z,20.20
2023-04-05T14:55:53.142Z,20.10
2023-04-05T14:58:20.211Z,19.90
2023-04-05T15:00:48.329Z,20.00
2023-04-05T15:03:15.897Z,20.00
2023-04-05T15:05:43.361Z,20.00
2023-04-05T15:08:10.376Z,20.00
2023-04-05T15:10:37.431Z,19.90
2023-04-05T15:13:04.495Z,19.90
2023-04-05T15:15:40.440Z,19.90
2023-04-05T15:18:10.275Z,20.00
2023-04-05T15:20:37.449Z,20.00
2023-04-05T15:23:04.502Z,20.10
2023-04-05T15:25:31.722Z,20.10
2023-04-05T15:28:02.289Z,20.10
2023-04-05T15:30:30.396Z,20.30
2023-04-05T15:32:57.603Z,20.30
2023-04-05T15:35:24.676Z,20.30
2023-04-05T15:37:51.770Z,20.20
2023-04-05T15:40:18.901Z,20.20
2023-04-05T15:42:46.192Z,20.30
2023-04-05T15:45:13.238Z,20.30
2023-04-05T15:47:40.595Z,20.50
2023-04-05T15:50:07.949Z,20.70
2023-04-05T15:52:35.710Z,20.80
2023-04-05T15:55:03.306Z,20.70
2023-04-05T15:57:30.320Z,20.60
2023-04-05T15:59:57.380Z,20.30
2023-04-05T16:02:25.736Z,20.00
2023-04-05T16:04:53.029Z,19.90
2023-04-05T16:07:20.061Z,20.00
2023-04-05T16:09:47.154Z,20.00
2023-04-05T16:12:14.240Z,20.10
2023-04-05T16:14:41.340Z,20.10
2023-04-05T16:17:08.401Z,20.10
2023-04-05T16:19:35.586Z,20.10
2023-04-05T16:22:03.891Z,20.00
2023-04-05T16:24:33.441Z,19.90
2023-04-05T16:27:00.480Z,19.80
2023-04-05T16:29:27.596Z,19.70
2023-04-05T16:31:54.888Z,19.80
2023-04-05T16:34:22.321Z,19.60
2023-04-05T16:36:49.378Z,19.40
2023-04-05T16:39:16.436Z,19.30
2023-04-05T16:41:43.616Z,19.40
2023-04-05T16:44:10.967Z,19.40
2023-04-05T16:46:38.212Z,19.30
2023-04-05T16:49:05.759Z,19.20
2023-04-05T16:51:34.434Z,19.20
2023-04-05T16:54:01.505Z,19.10
2023-04-05T16:56:28.494Z,19.00
2023-04-05T16:58:57.197Z,18.80
2023-04-05T17:01:24.361Z,18.60
2023-04-05T17:04:20.200Z,18.50
2023-04-05T17:06:56.371Z,18.40
2023-04-05T17:09:27.969Z,18.40
2023-04-05T17:11:55.793Z,18.40
2023-04-05T17:14:23.144Z,18.40
2023-04-05T17:16:50.314Z,18.20
2023-04-05T17:19:17.407Z,18.10
2023-04-05T17:21:48.892Z,18.00
2023-04-05T17:24:17.983Z,17.90
2023-04-05T17:26:45.087Z,17.80
2023-04-05T17:29:17.800Z,17.60
2023-04-05T17:31:45.853Z,17.50
2023-04-05T17:34:15.235Z,17.50
2023-04-05T17:36:43.017Z,17.30
2023-04-05T17:39:10.099Z,17.30
2023-04-05T17:41:37.107Z,17.10
2023-04-05T17:44:05.144Z,17.10
2023-04-05T17:46:42.745Z,17.00
2023-04-05T17:49:13.651Z,16.80
2023-04-05T17:51:40.693Z,16.40
2023-04-05T17:54:07.797Z,16.10
2023-04-05T17:56:34.847Z,15.80
2023-04-05T17:59:01.836Z,15.60
2023-04-05T18:01:29.723Z,15.40
2023-04-05T18:03:57.438Z,15.20
2023-04-05T18:06:24.500Z,15.00
2023-04-05T18:08:51.699Z,15.00
2023-04-05T18:11:18.817Z,14.90
2023-04-05T18:13:46.076Z,14.80
2023-04-05T18:16:13.111Z,14.60
2023-04-05T18:18:40.179Z,14.40
2023-04-05T18:21:07.247Z,14.30
2023-04-05T18:23:34.270Z,14.10
2023-04-05T18:26:05.532Z,13.90
2023-04-05T18:28:32.592Z,13.80
2023-04-05T18:30:59.891Z,13.70
2023-04-05T18:33:26.896Z,13.60
2023-04-05T18:35:54.219Z,13.30
2023-04-05T18:38:22.196Z,13.20
2023-04-05T18:40:49.280Z,13.10
2023-04-05T18:43:16.294Z,13.00
2023-04-05T18:45:43.419Z,12.90
2023-04-05T18:48:11.044Z,12.80
2023-04-05T18:50:38.310Z,12.70
2023-04-05T18:53:07.202Z,12.70
2023-04-05T18:55:34.274Z,12.50
2023-04-05T18:58:01.768Z,12.40
2023-04-05T19:00:28.774Z,12.20
2023-04-05T19:02:55.982Z,12.10
2023-04-05T19:05:23.000Z,12.00
2023-04-05T19:07:50.008Z,11.80
2023-04-05T19:10:17.482Z,11.70
2023-04-05T19:12:44.624Z,11.70
2023-04-05T19:15:12.104Z,11.60
2023-04-05T19:17:39.202Z,11.50
2023-04-05T19:20:06.487Z,11.40
2023-04-05T19:22:33.481Z,11.30
2023-04-05T19:25:01.589Z,11.10
2023-04-05T19:27:33.129Z,11.00
2023-04-05T19:30:00.289Z,10.90
2023-04-05T19:32:27.392Z,10.80
2023-04-05T19:34:54.940Z,10.80
2023-04-05T19:37:21.966Z,10.70
2023-04-05T19:39:48.946Z,10.50
2023-04-05T19:42:16.151Z,10.30
2023-04-05T19:44:46.314Z,10.30
2023-04-05T19:47:13.861Z,10.40
2023-04-05T19:49:42.607Z,10.30
2023-04-05T19:52:11.530Z,10.40
2023-04-05T19:54:39.180Z,10.30
2023-04-05T19:57:06.771Z,10.30
2023-04-05T19:59:34.857Z,10.30
2023-04-05T20:02:03.339Z,10.20
2023-04-05T20:04:34.698Z,10.20
2023-04-05T20:07:01.753Z,10.10
2023-04-05T20:09:30.212Z,10.00
2023-04-05T20:11:58.515Z,10.00
2023-04-05T20:14:28.146Z,10.00
2023-04-05T20:16:56.332Z,9.90
2023-04-05T20:19:31.019Z,9.80
2023-04-05T20:22:00.225Z,9.70
2023-04-05T20:24:27.922Z,9.70
2023-04-05T20:26:55.623Z,9.60
2023-04-05T20:29:26.945Z,9.50
2023-04-05T20:31:54.466Z,9.40
2023-04-05T20:34:21.438Z,9.30
2023-04-05T20:36:50.250Z,9.20
2023-04-05T20:39:17.332Z,9.20
2023-04-05T20:41:44.666Z,9.10
2023-04-05T20:44:11.742Z,9.10
2023-04-05T20:46:38.738Z,9.00
2023-04-05T20:49:05.964Z,9.00
2023-04-05T20:51:33.250Z,9.00
2023-04-05T20:54:00.316Z,8.90
2023-04-05T20:56:27.371Z,8.90
2023-04-05T20:58:57.366Z,8.70
2023-04-05T21:01:24.496Z,8.70
2023-04-05T21:03:53.416Z,8.60
2023-04-05T21:06:20.850Z,8.60
2023-04-05T21:08:47.808Z,8.50
2023-04-05T21:11:15.619Z,8.50
2023-04-05T21:13:43.623Z,8.50
2023-04-05T21:16:10.962Z,8.40
2023-04-05T21:18:38.113Z,8.30
2023-04-05T21:21:05.286Z,8.20
2023-04-05T21:23:34.026Z,8.20
2023-04-05T21:26:01.463Z,8.00
2023-04-05T21:28:28.509Z,7.80
2023-04-05T21:30:55.486Z,7.80
2023-04-05T21:33:22.688Z,7.80
2023-04-05T21:35:51.007Z,7.80
2023-04-05T21:38:18.345Z,7.80
2023-04-05T21:40:45.388Z,7.80
2023-04-05T21:43:13.309Z,7.80
2023-04-05T21:45:40.487Z,7.80
2023-04-05T21:48:07.681Z,7.80
2023-04-05T21:50:34.972Z,7.70
2023-04-05T21:53:01.993Z,7.70
2023-04-05T21:55:29.000Z,7.60
2023-04-05T21:57:56.332Z,7.60
2023-04-05T22:00:23.942Z,7.60
2023-04-05T22:02:51.263Z,7.50
2023-04-05T22:07:48.395Z,7.40
2023-04-05T22:10:15.957Z,7.40
2023-04-05T22:12:43.104Z,7.30
2023-04-05T22:15:10.446Z,7.30
2023-04-05T22:17:37.445Z,7.20
2023-04-05T22:20:04.698Z,7.20
2023-04-05T22:22:31.711Z,7.10
2023-04-05T22:24:58.742Z,7.10
2023-04-05T22:27:26.077Z,7.10
2023-04-05T22:29:54.767Z,7.00
2023-04-05T22:32:21.732Z,7.00
2023-04-05T22:34:49.229Z,7.00
2023-04-05T22:37:16.696Z,7.00
2023-04-05T22:39:43.640Z,7.00
2023-04-05T22:42:10.585Z,6.90
2023-04-05T22:44:37.634Z,6.80
2023-04-05T22:47:04.698Z,6.80
2023-04-05T22:49:32.071Z,6.70
2023-04-05T22:51:59.120Z,6.70
2023-04-05T22:54:26.342Z,6.70
2023-04-05T22:56:53.380Z,6.60
2023-04-05T22:59:22.908Z,6.60
2023-04-05T23:01:50.204Z,6.60
2023-04-05T23:04:17.355Z,6.50
2023-04-05T23:06:44.483Z,6.50
2023-04-05T23:09:11.481Z,6.40
2023-04-05T23:11:38.441Z,6.40
2023-04-05T23:14:06.508Z,6.40
2023-04-05T23:16:33.725Z,6.40
2023-04-05T23:19:00.807Z,6.40
2023-04-05T23:21:28.182Z,6.30
2023-04-05T23:23:55.177Z,6.30
2023-04-05T23:26:22.344Z,6.30
2023-04-05T23:28:49.314Z,6.30
2023-04-05T23:31:16.523Z,6.20
2023-04-05T23:33:43.562Z,6.20
2023-04-05T23:36:10.869Z,6.20
2023-04-05T23:38:37.979Z,6.10
2023-04-05T23:41:05.046Z,6.10
2023-04-05T23:43:32.333Z,6.00
2023-04-05T23:45:59.321Z,6.00
2023-04-05T23:48:26.264Z,6.00
2023-04-05T23:50:53.318Z,5.90
2023-04-05T23:53:20.339Z,5.90
2023-04-05T23:55:47.625Z,5.90
2023-04-05T23:58:14.549Z,5.80
